Scottsbluff, NE

2:18 AM MDT on April 27, 2017 (GMT -0600)
KNEB Radio | | Change Station

Elev 3878 ft 41.86 °N, 103.64 °W | Updated 4 minutes ago

Partly Cloudy
Partly Cloudy
39.8 °F
Feels Like 36 °F
N
6.0
Wind Variable Wind from ESE
Gusts 8.0 mph

Today
High -- | Low -- °F
--% Chance of Precip.
Yesterday
High -- | Low -- °F
Precip. -- in
Pressure 29.60 in
Visibility 10.0 miles
Clouds Few 7500 ft
Windchill 36 °F
Dew Point 37 °F
Humidity 91%
Rainfall 0.00 in
Snow Depth Not available.
5:55 AM 7:49 PM
New Moon, 1% visible
METAR KBFF 270753Z AUTO 10008KT 10SM FEW075 04/03 A2962 RMK AO2 SLP021 T00440028
Pressure 29.60 in
Visibility 10.0 miles
Clouds Few 7500 ft
Windchill 36 °F
Dew Point 37 °F
Humidity 91%
Rainfall 0.00 in
Snow Depth Not available.
5:55 AM 7:49 PM
New Moon, 1% visible
METAR KBFF 270753Z AUTO 10008KT 10SM FEW075 04/03 A2962 RMK AO2 SLP021 T00440028

Get Severe Weather Alerts

Thanks for signing up!

Be on the lookout for a verification email in your inbox.

You'll start receiving the daily forecast at 8 AM.

×

10-Day Weather Forecast

Almanac

Astronomy

Apr. 27, 2017 Rise Set
Actual Time
Civil Twilight
Nautical Twilight
Astronomical Twilight
Moon
Length of Visible Light
Length of Day
Tomorrow will be .
, % of the Moon is Illuminated

Today's Extremes

State Highs State Lows

Community

WunderPhotos

WunderBlog® & News

Nearby

Air Quality

  Air Quality AQ Index Pollutant
Not available.

Snow Depth

Station Depth Elevation

Earthquake Activity

City Distance Mag. Time & Date
Minimum magnitude displayed is 2.5.

Coastal Water Temperatures

Place Temperature

Stations

Nearby Weather Stations

Station Location Temp. Windchill Dew Point Humidity Wind Precip. Elev Updated Type
                   

Watches & Warnings

There are currently no watches in effect.